Time;durP1;ratioP1;P1;durP2;ratioP2;P2;SDS_P1;SDS_P2;PMS_P1;PMS_P2;Temp;Humidity;BMP_temperature;BMP_pressure;BME280_temperature;BME280_humidity;BME280_pressure;Samples;Min_cycle;Max_cycle;Signal;HPM_P1;HPM_P2
2023/03/30 00:01:56;;;;;;;54.78;49.90;;;;;;;-4.82;100.00;101909.59;5022367;28;20053;-79
2023/03/30 00:04:25;;;;;;;44.03;39.97;;;;;;;-4.75;100.00;101902.31;5015337;28;20049;-79
2023/03/30 00:06:53;;;;;;;41.58;38.00;;;;;;;-4.64;100.00;101900.03;5017393;28;20088;-79
2023/03/30 00:09:21;;;;;;;47.03;43.03;;;;;;;-4.88;100.00;101904.72;5012759;28;20496;-79
2023/03/30 00:11:48;;;;;;;51.63;47.25;;;;;;;-4.89;100.00;101903.88;5015961;28;20054;-79
2023/03/30 00:14:18;;;;;;;47.83;44.30;;;;;;;-4.93;100.00;101899.78;5015302;28;20133;-79
2023/03/30 00:16:45;;;;;;;45.47;41.80;;;;;;;-4.81;100.00;101892.28;5015021;28;20137;-79
2023/03/30 00:19:12;;;;;;;42.47;38.88;;;;;;;-4.82;100.00;101886.25;5013714;28;20058;-79
2023/03/30 00:21:38;;;;;;;51.55;46.95;;;;;;;-4.77;100.00;101889.47;5017525;28;20046;-79
2023/03/30 00:24:06;;;;;;;50.47;45.95;;;;;;;-5.03;100.00;101885.59;5012942;28;20184;-79
2023/03/30 00:26:32;;;;;;;53.60;48.67;;;;;;;-4.90;100.00;101893.56;5015721;28;20109;-79
2023/03/30 00:28:59;;;;;;;54.00;48.80;;;;;;;-4.87;100.00;101894.28;5005061;28;20050;-79
2023/03/30 00:31:27;;;;;;;55.00;49.97;;;;;;;-4.92;100.00;101893.66;5010962;28;20483;-79
2023/03/30 00:33:54;;;;;;;51.35;46.15;;;;;;;-5.19;100.00;101890.69;5019952;28;20058;-79
2023/03/30 00:36:22;;;;;;;51.78;46.92;;;;;;;-5.23;100.00;101896.94;5012528;28;20051;-80
2023/03/30 00:38:49;;;;;;;57.47;52.28;;;;;;;-5.11;100.00;101895.50;5011405;28;20069;-79
2023/03/30 00:41:16;;;;;;;51.72;46.28;;;;;;;-5.00;100.00;101893.19;5014495;28;20061;-79
2023/03/30 00:43:57;;;;;;;47.92;43.38;;;;;;;-4.78;100.00;101892.97;5015123;28;20049;-79
2023/03/30 00:46:24;;;;;;;48.15;43.78;;;;;;;-5.07;100.00;101892.69;5012045;28;20492;-79
2023/03/30 00:48:56;;;;;;;44.58;40.70;;;;;;;-4.61;100.00;101882.56;5017447;28;20046;-79
2023/03/30 00:51:24;;;;;;;51.53;47.17;;;;;;;-4.75;100.00;101891.97;5019021;28;20046;-79
2023/03/30 00:53:54;;;;;;;47.17;43.67;;;;;;;-4.74;100.00;101880.69;5020176;28;20473;-79
2023/03/30 00:56:26;;;;;;;48.03;44.65;;;;;;;-4.79;100.00;101893.88;5014912;28;20054;-79
2023/03/30 00:58:54;;;;;;;43.72;40.72;;;;;;;-4.88;100.00;101883.97;5015603;28;20113;-79
2023/03/30 01:01:27;;;;;;;42.25;39.13;;;;;;;-4.78;100.00;101887.78;5024182;28;20130;-79
2023/03/30 01:03:58;;;;;;;52.65;49.28;;;;;;;-5.12;100.00;101886.03;5016660;28;20053;-79
2023/03/30 01:06:28;;;;;;;68.10;62.83;;;;;;;-5.09;100.00;101885.88;5016886;28;20088;-79
2023/03/30 01:08:56;;;;;;;65.55;58.88;;;;;;;-5.34;100.00;101892.28;5007846;28;20089;-79
2023/03/30 01:11:25;;;;;;;50.13;45.75;;;;;;;-5.42;100.00;101886.63;5018673;28;20050;-79
2023/03/30 01:13:58;;;;;;;48.22;44.22;;;;;;;-5.31;100.00;101881.75;5018471;28;20124;-79
2023/03/30 01:16:31;;;;;;;49.63;45.35;;;;;;;-5.40;100.00;101884.81;5017786;28;20060;-79
2023/03/30 01:19:18;;;;;;;62.60;57.03;;;;;;;-5.25;100.00;101885.81;5009892;28;20045;-79
2023/03/30 01:22:17;;;;;;;58.33;53.42;;;;;;;-5.26;100.00;101883.28;5007682;28;20050;-79
2023/03/30 01:25:20;;;;;;;62.60;57.25;;;;;;;-5.55;100.00;101896.72;5016316;28;20081;-79
2023/03/30 01:28:21;;;;;;;54.20;49.78;;;;;;;-5.45;100.00;101888.53;5017345;28;20060;-79
2023/03/30 01:31:04;;;;;;;48.97;44.80;;;;;;;-5.84;100.00;101894.66;5008938;28;20479;-79
2023/03/30 01:34:19;;;;;;;50.40;46.42;;;;;;;-5.32;100.00;101887.03;5011361;28;20050;-79
2023/03/30 01:37:33;;;;;;;54.83;50.33;;;;;;;-5.23;100.00;101896.13;4954563;29;20043;-79
2023/03/30 01:40:08;;;;;;;46.45;43.13;;;;;;;-4.95;100.00;101893.81;4899417;29;20053;-79
2023/03/30 01:42:41;;;;;;;43.58;40.17;;;;;;;-5.38;100.00;101889.94;4997149;28;20522;-79
2023/03/30 01:45:13;;;;;;;44.55;41.08;;;;;;;-5.62;100.00;101895.34;5018361;28;20046;-79
2023/03/30 01:47:49;;;;;;;49.10;45.47;;;;;;;-5.65;100.00;101894.66;5019636;28;20046;-79
2023/03/30 01:50:23;;;;;;;56.05;51.08;;;;;;;-5.62;100.00;101897.94;5014683;28;20054;-80
2023/03/30 01:52:55;;;;;;;46.78;42.85;;;;;;;-5.78;100.00;101895.25;5014755;28;20141;-79
2023/03/30 01:55:28;;;;;;;49.38;44.85;;;;;;;-5.70;100.00;101896.63;5018074;28;20111;-79
2023/03/30 01:58:00;;;;;;;66.40;60.58;;;;;;;-5.89;100.00;101905.25;5015965;28;20049;-79
2023/03/30 02:00:28;;;;;;;61.80;55.05;;;;;;;-6.00;100.00;101905.75;5006171;28;20086;-79
2023/03/30 02:02:57;;;;;;;68.32;54.47;;;;;;;-5.70;100.00;101905.22;5012679;28;20117;-79
2023/03/30 02:05:28;;;;;;;73.22;58.10;;;;;;;-5.72;100.00;101908.78;5015642;28;20072;-79
2023/03/30 02:08:00;;;;;;;83.55;69.55;;;;;;;-5.72;100.00;101911.38;5023420;28;20064;-79
2023/03/30 02:10:30;;;;;;;;;;;;;;;-5.81;100.00;101918.69;5016614;28;20050;-79
2023/03/30 02:12:59;;;;;;;76.00;68.10;;;;;;;-5.59;100.00;101917.69;5017418;28;19921;-79
2023/03/30 02:15:32;;;;;;;53.10;46.63;;;;;;;-5.54;100.00;101915.69;5012628;28;20081;-80
2023/03/30 02:17:58;;;;;;;67.05;59.33;;;;;;;-6.01;100.00;101909.28;5017420;28;20073;-79
2023/03/30 02:20:27;;;;;;;65.75;58.83;;;;;;;-5.82;100.00;101916.16;5018183;28;20053;-79
2023/03/30 02:22:56;;;;;;;57.08;50.85;;;;;;;-5.96;100.00;101915.97;5013628;28;20099;-79
2023/03/30 02:25:23;;;;;;;52.97;44.00;;;;;;;-5.69;100.00;101908.66;5015728;28;20081;-79
2023/03/30 02:27:51;;;;;;;57.85;51.55;;;;;;;-5.98;100.00;101922.97;5016670;28;20056;-80
2023/03/30 02:30:18;;;;;;;56.65;50.97;;;;;;;-6.08;100.00;101927.72;5008170;28;20057;-79
2023/03/30 02:32:49;;;;;;;45.28;39.95;;;;;;;-5.74;100.00;101929.59;5015946;28;20050;-79
2023/03/30 02:35:50;;;;;;;45.15;40.42;;;;;;;-5.96;100.00;101932.34;5017483;28;20054;-79
2023/03/30 02:38:49;;;;;;;49.63;38.65;;;;;;;-5.95;100.00;101941.78;5012513;28;20141;-79
2023/03/30 02:41:28;;;;;;;58.65;42.08;;;;;;;-6.01;100.00;101942.06;5016608;28;20062;-79
2023/03/30 02:44:04;;;;;;;49.03;41.00;;;;;;;-6.28;100.00;101937.22;5015648;28;20519;-79
2023/03/30 02:46:47;;;;;;;50.42;43.92;;;;;;;-6.12;100.00;101944.28;5015176;28;20045;-79
2023/03/30 02:49:19;;;;;;;47.78;39.22;;;;;;;-6.02;100.00;101946.41;5014682;28;20085;-79
2023/03/30 02:51:50;;;;;;;48.50;42.88;;;;;;;-6.03;100.00;101933.53;5018922;28;20050;-79
2023/03/30 02:54:31;;;;;;;87.78;51.40;;;;;;;-5.93;100.00;101944.28;5015619;28;20455;-79
2023/03/30 02:57:06;;;;;;;97.13;57.55;;;;;;;-5.89;100.00;101941.47;5014432;28;20510;-80
2023/03/30 02:59:41;;;;;;;73.35;48.17;;;;;;;-6.07;100.00;101938.00;5011727;28;20077;-79
2023/03/30 03:02:14;;;;;;;70.60;45.78;;;;;;;-5.92;100.00;101944.19;5019649;28;20120;-79
2023/03/30 03:04:42;;;;;;;82.85;51.33;;;;;;;-6.16;100.00;101945.34;5014786;28;20072;-79
2023/03/30 03:07:10;;;;;;;58.08;40.88;;;;;;;-5.88;100.00;101952.66;5019576;28;20042;-79
2023/03/30 03:09:37;;;;;;;52.92;38.28;;;;;;;-6.14;100.00;101957.31;5018482;28;20054;-79
2023/03/30 03:12:04;;;;;;;448.30;152.75;;;;;;;-6.18;100.00;101945.38;5018108;28;20058;-79
2023/03/30 03:14:31;;;;;;;540.97;219.23;;;;;;;-6.03;100.00;101956.81;5015879;28;20105;-79
2023/03/30 03:16:59;;;;;;;365.02;130.43;;;;;;;-6.27;100.00;101954.38;5014919;28;20041;-79
2023/03/30 03:19:26;;;;;;;127.07;66.80;;;;;;;-6.47;100.00;101962.19;5012266;28;20120;-79
2023/03/30 03:21:53;;;;;;;80.63;54.50;;;;;;;-6.60;100.00;101958.44;5016969;28;20048;-79
2023/03/30 03:24:20;;;;;;;542.55;209.52;;;;;;;-6.91;100.00;101950.22;5015721;28;20049;-80
2023/03/30 03:26:47;;;;;;;539.42;238.38;;;;;;;-6.52;100.00;101957.19;5014587;28;20069;-79
2023/03/30 03:29:14;;;;;;;83.90;56.72;;;;;;;-6.76;100.00;101964.25;5010184;28;20050;-79
2023/03/30 03:31:41;;;;;;;147.07;84.40;;;;;;;-6.52;100.00;101962.38;5021963;28;20046;-79
2023/03/30 03:34:09;;;;;;;328.73;112.85;;;;;;;-6.68;100.00;101958.78;5013605;28;20496;-80
2023/03/30 03:36:36;;;;;;;190.23;85.22;;;;;;;-6.74;100.00;101969.38;5010069;28;20056;-79
2023/03/30 03:39:03;;;;;;;152.48;78.63;;;;;;;-6.60;100.00;101968.78;5022199;28;20077;-79
2023/03/30 03:41:30;;;;;;;90.72;60.70;;;;;;;-6.59;100.00;101962.72;5006003;28;20085;-79
2023/03/30 03:43:57;;;;;;;73.20;54.78;;;;;;;-6.63;100.00;101967.16;5014022;28;20081;-79
2023/03/30 03:46:24;;;;;;;67.50;49.55;;;;;;;-6.76;100.00;101972.00;5015627;28;20111;-79
2023/03/30 03:48:50;;;;;;;64.25;46.85;;;;;;;-6.82;100.00;101972.25;5016041;28;20070;-79
2023/03/30 03:51:19;;;;;;;49.08;40.50;;;;;;;-6.86;100.00;101977.63;5017515;28;20077;-79
2023/03/30 03:53:48;;;;;;;59.28;47.35;;;;;;;-6.74;100.00;101982.28;5015190;28;20548;-79
2023/03/30 03:56:15;;;;;;;76.25;53.40;;;;;;;-7.05;100.00;101982.66;5015795;28;20077;-79
2023/03/30 03:58:42;;;;;;;81.15;55.80;;;;;;;-7.09;100.00;101984.53;5013277;28;20046;-79
2023/03/30 04:01:08;;;;;;;78.90;52.95;;;;;;;-6.87;100.00;101986.25;5023532;28;20543;-79
2023/03/30 04:03:35;;;;;;;71.53;50.80;;;;;;;-6.99;100.00;101987.59;5017010;28;20049;-79
2023/03/30 04:06:02;;;;;;;70.82;46.92;;;;;;;-6.96;100.00;101982.28;5015903;28;20046;-79
2023/03/30 04:08:30;;;;;;;55.05;39.95;;;;;;;-6.86;100.00;101990.53;5014778;28;20132;-79
2023/03/30 04:11:06;;;;;;;47.38;37.13;;;;;;;-7.08;100.00;102000.88;5008951;28;20530;-79
2023/03/30 04:13:33;;;;;;;73.80;55.50;;;;;;;-7.16;100.00;101990.88;5006437;28;20069;-79
2023/03/30 04:16:00;;;;;;;91.18;56.03;;;;;;;-7.61;100.00;102000.31;5003557;28;20569;-79
2023/03/30 04:18:30;;;;;;;88.80;56.35;;;;;;;-7.42;100.00;102003.03;5018016;28;20057;-79
2023/03/30 04:20:58;;;;;;;135.40;69.38;;;;;;;-7.23;100.00;102007.47;5002829;28;20047;-79
2023/03/30 04:23:30;;;;;;;57.08;42.85;;;;;;;-6.91;100.00;102007.03;5004064;28;20453;-79
2023/03/30 04:26:00;;;;;;;33.10;29.73;;;;;;;-6.74;100.00;102016.72;5001915;28;20106;-79
2023/03/30 04:28:28;;;;;;;31.95;28.63;;;;;;;-6.92;100.00;102015.72;5003677;28;20508;-79
2023/03/30 04:30:58;;;;;;;33.25;29.88;;;;;;;-6.77;100.00;102019.41;4997442;28;20069;-79
2023/03/30 04:33:24;;;;;;;37.50;33.53;;;;;;;-6.76;100.00;102026.25;5006922;28;20080;-79
2023/03/30 04:35:51;;;;;;;42.97;36.70;;;;;;;-6.64;100.00;102029.25;5000691;28;20042;-79
2023/03/30 04:38:21;;;;;;;79.38;52.38;;;;;;;-6.61;100.00;102022.22;5001211;28;20054;-79
2023/03/30 04:40:48;;;;;;;66.95;45.25;;;;;;;-6.09;100.00;102034.69;5010152;28;20042;-79
2023/03/30 04:43:18;;;;;;;61.00;41.65;;;;;;;-5.87;100.00;102030.25;5002187;28;20057;-79
2023/03/30 04:45:49;;;;;;;84.68;52.53;;;;;;;-5.64;100.00;102043.88;5004877;28;20082;-79
2023/03/30 04:48:16;;;;;;;77.18;51.67;;;;;;;-5.61;100.00;102048.94;5013110;28;20132;-79
2023/03/30 04:50:44;;;;;;;73.60;49.25;;;;;;;-5.73;100.00;102047.72;5007139;28;20038;-80
2023/03/30 04:53:11;;;;;;;60.08;43.50;;;;;;;-5.58;100.00;102057.41;5014943;28;20047;-79
2023/03/30 04:55:38;;;;;;;39.60;35.45;;;;;;;-5.00;100.00;102056.47;5009893;28;20078;-79
2023/03/30 04:58:05;;;;;;;37.70;32.83;;;;;;;-4.71;100.00;102060.25;5013520;28;20491;-79
2023/03/30 05:00:33;;;;;;;63.42;44.97;;;;;;;-4.80;100.00;102065.88;5016443;28;20054;-79
2023/03/30 05:03:00;;;;;;;41.97;35.10;;;;;;;-4.84;100.00;102065.19;5002027;28;20046;-80
2023/03/30 05:05:26;;;;;;;46.97;36.13;;;;;;;-4.50;100.00;102062.72;5001663;28;20212;-80
2023/03/30 05:07:53;;;;;;;34.72;30.83;;;;;;;-4.49;100.00;102065.22;5003447;28;20141;-79
2023/03/30 05:10:20;;;;;;;50.38;37.78;;;;;;;-4.56;100.00;102065.63;5007157;28;20042;-79
2023/03/30 05:12:47;;;;;;;45.33;36.42;;;;;;;-4.80;100.00;102071.06;5003834;28;20507;-79
2023/03/30 05:15:14;;;;;;;42.63;35.17;;;;;;;-4.55;100.00;102052.56;5005319;28;20423;-79
2023/03/30 05:17:42;;;;;;;31.83;28.45;;;;;;;-4.20;100.00;102065.56;5008875;28;20081;-79
2023/03/30 05:20:10;;;;;;;35.90;32.38;;;;;;;-4.09;100.00;102059.81;5012890;28;20116;-79
2023/03/30 05:22:37;;;;;;;31.33;28.08;;;;;;;-3.71;100.00;102058.66;5005718;28;20539;-79
2023/03/30 05:25:04;;;;;;;32.72;29.23;;;;;;;-3.56;100.00;102053.59;5005869;28;20052;-79
2023/03/30 05:27:31;;;;;;;36.13;29.42;;;;;;;-3.40;100.00;102058.78;5004035;28;20050;-80
2023/03/30 05:29:57;;;;;;;43.25;34.65;;;;;;;-3.28;100.00;102050.31;5005518;28;20104;-79
2023/03/30 05:32:24;;;;;;;50.60;37.47;;;;;;;-3.06;100.00;102058.59;5003526;28;20038;-79
2023/03/30 05:34:53;;;;;;;32.95;29.38;;;;;;;-2.82;100.00;102059.00;5008132;28;20038;-80
2023/03/30 05:37:19;;;;;;;33.70;29.27;;;;;;;-2.72;100.00;102054.16;5011433;28;20120;-79
2023/03/30 05:39:46;;;;;;;26.83;24.48;;;;;;;-2.63;100.00;102063.16;5013516;28;20104;-79
2023/03/30 05:42:13;;;;;;;28.05;25.63;;;;;;;-2.49;100.00;102060.63;5010598;28;20050;-80
2023/03/30 05:44:40;;;;;;;30.05;27.42;;;;;;;-2.19;100.00;102064.97;5006091;28;20054;-79
2023/03/30 05:47:07;;;;;;;28.27;25.70;;;;;;;-2.26;100.00;102056.69;5015251;28;20566;-79
2023/03/30 05:49:33;;;;;;;27.80;25.23;;;;;;;-2.04;100.00;102058.84;5009396;28;20077;-79
2023/03/30 05:52:02;;;;;;;30.85;25.65;;;;;;;-1.90;100.00;102063.25;5017694;28;20396;-79
2023/03/30 05:54:29;;;;;;;29.52;26.95;;;;;;;-1.75;100.00;102075.34;5012762;28;20046;-79
2023/03/30 05:56:56;;;;;;;26.92;24.45;;;;;;;-1.95;100.00;102070.50;5013212;28;20088;-80
2023/03/30 05:59:23;;;;;;;26.60;24.27;;;;;;;-1.38;100.00;102060.91;5011493;28;20046;-79
2023/03/30 06:01:50;;;;;;;27.05;24.70;;;;;;;-1.39;100.00;102064.44;5009402;28;20108;-79
2023/03/30 06:04:17;;;;;;;28.63;25.83;;;;;;;-0.84;100.00;102067.13;5007469;28;20053;-79
2023/03/30 06:06:43;;;;;;;26.30;23.80;;;;;;;-1.23;100.00;102059.09;5007263;28;20078;-79
2023/03/30 06:09:11;;;;;;;27.30;24.77;;;;;;;-0.76;100.00;102062.22;5006106;28;20042;-79
2023/03/30 06:11:38;;;;;;;31.50;28.48;;;;;;;-0.34;100.00;102069.00;5009210;28;20042;-79
2023/03/30 06:14:05;;;;;;;30.23;27.45;;;;;;;-0.05;100.00;102064.44;5010798;28;20043;-79
2023/03/30 06:16:31;;;;;;;32.47;29.50;;;;;;;0.00;100.00;102066.75;5013090;28;20500;-80
2023/03/30 06:18:58;;;;;;;29.85;26.92;;;;;;;0.27;100.00;102068.41;5010964;28;20046;-79
2023/03/30 06:21:25;;;;;;;31.85;28.38;;;;;;;0.41;100.00;102070.91;5009832;28;20054;-80
2023/03/30 06:23:52;;;;;;;33.10;27.20;;;;;;;0.70;100.00;102071.50;5001847;28;20054;-80
2023/03/30 06:26:20;;;;;;;34.03;28.10;;;;;;;0.41;100.00;102069.13;5006203;28;20117;-79
2023/03/30 06:28:47;;;;;;;32.95;29.40;;;;;;;1.03;100.00;102062.16;5014338;28;20107;-79
2023/03/30 06:31:14;;;;;;;29.08;25.95;;;;;;;1.36;100.00;102083.28;5019938;28;20475;-79
2023/03/30 06:33:40;;;;;;;28.88;26.35;;;;;;;2.08;100.00;102073.59;5010660;28;20054;-80
2023/03/30 06:36:11;;;;;;;31.42;28.40;;;;;;;2.40;100.00;102068.50;5008323;28;20051;-80
2023/03/30 06:38:38;;;;;;;32.00;28.83;;;;;;;2.77;100.00;102079.53;5009330;28;20042;-80
2023/03/30 06:41:05;;;;;;;27.73;25.25;;;;;;;3.02;100.00;102072.34;5015103;28;20054;-79
2023/03/30 06:43:34;;;;;;;26.17;23.83;;;;;;;3.00;100.00;102075.09;5007931;28;20455;-80
2023/03/30 06:46:01;;;;;;;28.15;24.90;;;;;;;3.18;100.00;102075.41;5008494;28;20043;-80
2023/03/30 06:48:28;;;;;;;30.30;25.98;;;;;;;3.72;100.00;102078.84;5013615;28;20049;-80
2023/03/30 06:50:55;;;;;;;25.25;22.77;;;;;;;4.07;100.00;102076.72;5018861;28;20042;-80
2023/03/30 06:53:23;;;;;;;28.55;26.13;;;;;;;3.82;100.00;102079.78;5009442;28;20042;-80
2023/03/30 06:55:51;;;;;;;31.77;28.90;;;;;;;4.18;100.00;102083.72;5010182;28;20049;-82
2023/03/30 06:58:18;;;;;;;28.98;26.05;;;;;;;4.59;100.00;102085.41;5012873;28;20050;-83
2023/03/30 07:00:46;;;;;;;27.27;24.67;;;;;;;4.61;100.00;102082.66;5001528;28;20042;-82
2023/03/30 07:03:13;;;;;;;25.10;22.65;;;;;;;4.58;99.99;102073.22;5014464;28;20053;-82
2023/03/30 07:05:40;;;;;;;27.77;25.38;;;;;;;4.59;100.00;102072.25;5012907;28;20054;-82
2023/03/30 07:08:07;;;;;;;27.23;24.70;;;;;;;5.19;99.89;102085.41;5023398;28;20046;-83
2023/03/30 07:10:34;;;;;;;25.58;23.38;;;;;;;5.80;100.00;102075.53;5009600;28;20494;-83
2023/03/30 07:13:00;;;;;;;25.63;23.13;;;;;;;5.14;95.38;102073.63;5004476;28;20050;-83
2023/03/30 07:15:27;;;;;;;26.75;24.20;;;;;;;6.05;92.50;102071.50;5001556;28;20046;-83
2023/03/30 07:17:55;;;;;;;24.75;22.42;;;;;;;5.80;84.03;102075.53;5014469;28;20404;-83
2023/03/30 07:20:22;;;;;;;24.17;21.88;;;;;;;5.42;81.28;102080.72;5005511;28;20050;-83
2023/03/30 07:22:49;;;;;;;24.63;22.00;;;;;;;5.61;79.43;102084.31;5008257;28;20074;-83
2023/03/30 07:25:17;;;;;;;25.30;23.15;;;;;;;6.62;78.79;102080.16;5014249;28;20057;-83
2023/03/30 07:27:43;;;;;;;24.85;22.85;;;;;;;5.67;75.03;102073.22;5013720;28;20050;-82
2023/03/30 07:30:12;;;;;;;24.00;21.88;;;;;;;5.80;72.83;102065.81;5004856;28;20058;-83
2023/03/30 07:32:38;;;;;;;26.55;23.98;;;;;;;6.85;74.07;102067.41;5010767;28;20058;-83
2023/03/30 07:35:07;;;;;;;25.77;23.52;;;;;;;6.09;66.78;102062.34;5011704;28;20046;-83
2023/03/30 07:37:36;;;;;;;25.15;23.02;;;;;;;7.23;69.09;102055.75;5012392;28;20490;-83
2023/03/30 07:40:06;;;;;;;23.38;21.38;;;;;;;6.91;68.06;102068.63;5016752;28;20077;-83
2023/03/30 07:42:32;;;;;;;25.23;23.13;;;;;;;7.13;64.80;102065.53;5015740;28;20101;-83
2023/03/30 07:44:59;;;;;;;25.55;23.55;;;;;;;7.76;60.54;102061.94;5011943;28;20042;-83
2023/03/30 07:47:26;;;;;;;23.67;21.63;;;;;;;7.26;58.86;102060.72;5014400;28;21368;-80
2023/03/30 07:49:53;;;;;;;24.60;22.55;;;;;;;7.98;67.15;102057.94;5017980;28;20050;-80
2023/03/30 07:52:24;;;;;;;23.52;21.83;;;;;;;6.87;51.60;102070.75;5022769;28;20061;-82
2023/03/30 07:54:50;;;;;;;26.63;24.40;;;;;;;7.91;52.97;102068.34;4993534;28;20173;-82
2023/03/30 07:57:17;;;;;;;24.15;21.95;;;;;;;8.08;55.31;102057.84;4996342;28;20060;-83
2023/03/30 07:59:44;;;;;;;21.48;19.85;;;;;;;7.73;50.71;102062.25;4989575;28;20042;-83
2023/03/30 08:02:13;;;;;;;21.80;20.33;;;;;;;7.55;43.06;102062.28;4993872;28;20539;-82
2023/03/30 08:04:40;;;;;;;23.17;21.45;;;;;;;7.96;44.47;102057.28;5001271;28;20061;-82
2023/03/30 08:07:07;;;;;;;22.33;20.83;;;;;;;7.47;52.17;102057.75;5005094;28;20483;-82
2023/03/30 08:09:35;;;;;;;23.42;21.58;;;;;;;9.24;47.79;102050.16;5003036;28;20181;-82
2023/03/30 08:12:02;;;;;;;22.63;21.13;;;;;;;7.75;41.92;102053.19;4993488;28;20132;-83
2023/03/30 08:14:28;;;;;;;25.58;23.52;;;;;;;8.43;52.46;102046.31;5003136;28;20092;-82
2023/03/30 08:16:55;;;;;;;24.13;22.40;;;;;;;9.33;55.83;102047.34;5002821;28;20133;-82
2023/03/30 08:19:24;;;;;;;25.63;23.83;;;;;;;9.47;46.69;102042.34;5003040;28;20112;-83
2023/03/30 08:21:51;;;;;;;21.70;20.10;;;;;;;8.66;45.64;102044.75;5002581;28;20100;-83
2023/03/30 08:24:17;;;;;;;24.65;22.85;;;;;;;8.25;41.94;102027.81;5000899;28;20129;-82
2023/03/30 08:26:46;;;;;;;24.13;22.42;;;;;;;9.97;42.37;102033.34;5002340;28;20367;-83
2023/03/30 08:29:12;;;;;;;21.70;20.10;;;;;;;10.40;35.99;102028.59;5002012;28;20119;-83
2023/03/30 08:31:39;;;;;;;23.17;21.50;;;;;;;10.49;38.85;102024.88;5008270;28;20042;-83
2023/03/30 08:34:07;;;;;;;21.52;20.02;;;;;;;10.68;36.57;102031.59;5001733;28;20053;-83
2023/03/30 08:36:34;;;;;;;23.13;21.52;;;;;;;10.84;38.75;102028.03;4998222;28;20129;-83
2023/03/30 08:39:01;;;;;;;23.52;21.50;;;;;;;11.44;42.53;102024.59;5007593;28;20046;-83
2023/03/30 08:41:52;;;;;;;26.02;24.10;;;;;;;10.30;35.36;102023.50;4999221;28;20089;-83
2023/03/30 08:44:31;;;;;;;24.65;22.95;;;;;;;11.74;36.96;102012.19;4992080;28;20139;-83
2023/03/30 08:46:59;;;;;;;24.75;22.95;;;;;;;12.17;37.15;102014.25;4984978;28;20050;-83
2023/03/30 08:49:31;;;;;;;27.00;25.10;;;;;;;10.51;40.21;102010.44;4999706;28;20125;-83
2023/03/30 08:52:01;;;;;;;25.20;23.60;;;;;;;10.89;35.33;102009.72;5010399;28;20042;-83
2023/03/30 08:54:31;;;;;;;24.77;23.02;;;;;;;10.52;40.40;102008.59;5002290;28;20053;-83
2023/03/30 08:57:08;;;;;;;25.48;23.88;;;;;;;10.94;38.56;102016.16;4999873;28;20103;-83
2023/03/30 08:59:43;;;;;;;28.05;25.50;;;;;;;11.52;39.64;102002.41;4999772;28;20594;-83
2023/03/30 09:02:17;;;;;;;24.83;23.23;;;;;;;11.80;32.91;102000.81;5007800;28;20057;-83
2023/03/30 09:04:56;;;;;;;27.52;25.52;;;;;;;12.25;40.93;101990.97;4996164;28;20046;-83
2023/03/30 09:07:26;;;;;;;26.67;24.77;;;;;;;10.63;36.92;101997.59;4992521;28;20047;-83
2023/03/30 09:09:56;;;;;;;24.00;22.33;;;;;;;11.05;34.38;101990.19;5000574;28;20140;-82
2023/03/30 09:12:36;;;;;;;24.88;22.98;;;;;;;10.77;45.04;101994.19;4998104;28;20047;-83
2023/03/30 09:15:07;;;;;;;26.50;24.65;;;;;;;10.29;32.72;101988.16;5001253;28;20047;-83
2023/03/30 09:17:40;;;;;;;26.20;23.88;;;;;;;10.19;31.21;101979.50;5003499;28;20042;-83
2023/03/30 09:20:13;;;;;;;23.73;22.02;;;;;;;8.99;39.88;101993.66;4995272;28;20053;-82
2023/03/30 09:22:41;;;;;;;23.52;21.83;;;;;;;12.03;32.20;101967.94;4996796;28;20042;-83
2023/03/30 09:25:17;;;;;;;24.58;22.83;;;;;;;10.91;28.69;101976.63;5001682;28;20104;-83
2023/03/30 09:27:54;;;;;;;25.85;23.83;;;;;;;10.78;29.11;101971.09;4996603;28;20065;-83
2023/03/30 09:30:25;;;;;;;24.20;22.40;;;;;;;11.28;27.68;101959.06;4998929;28;20053;-83
2023/03/30 09:33:00;;;;;;;25.52;23.83;;;;;;;11.95;30.11;101946.75;5001445;28;20097;-83
2023/03/30 09:35:35;;;;;;;27.20;25.50;;;;;;;11.59;31.20;101952.75;5002139;28;20590;-82
2023/03/30 09:38:02;;;;;;;22.88;21.35;;;;;;;10.99;30.65;101951.84;5008996;28;20054;-82
2023/03/30 09:40:45;;;;;;;23.20;21.50;;;;;;;12.30;28.41;101937.16;4997679;28;20049;-83
2023/03/30 09:43:23;;;;;;;24.08;22.58;;;;;;;12.98;29.06;101946.47;5005180;28;20038;-83
2023/03/30 09:45:51;;;;;;;23.92;22.33;;;;;;;11.34;30.51;101936.22;5002617;28;20485;-83
2023/03/30 09:48:17;;;;;;;27.08;25.17;;;;;;;11.46;29.09;101934.78;5005738;28;20049;-83
2023/03/30 09:50:46;;;;;;;25.42;24.00;;;;;;;11.19;28.56;101933.53;5005406;28;20054;-83
2023/03/30 09:53:23;;;;;;;30.67;28.95;;;;;;;10.67;41.28;101929.81;5005618;28;20483;-83
2023/03/30 09:56:01;;;;;;;25.05;23.38;;;;;;;13.54;30.19;101920.81;5006616;28;20053;-83
2023/03/30 09:58:31;;;;;;;26.85;25.15;;;;;;;12.13;36.59;101920.53;5001869;28;20050;-83
2023/03/30 10:01:02;;;;;;;27.15;25.35;;;;;;;13.11;28.18;101908.41;5002271;28;20097;-83
2023/03/30 10:03:29;;;;;;;25.88;24.35;;;;;;;11.26;37.51;101905.25;5005362;28;20054;-83
2023/03/30 10:06:06;;;;;;;24.85;23.15;;;;;;;12.02;41.96;101907.72;5004342;28;20046;-83
2023/03/30 10:08:35;;;;;;;27.25;25.55;;;;;;;10.89;34.61;101914.03;5005217;28;20086;-83
2023/03/30 10:11:04;;;;;;;27.00;25.13;;;;;;;11.24;40.81;101896.59;5004637;28;20044;-83
2023/03/30 10:13:36;;;;;;;25.38;23.85;;;;;;;9.39;33.11;101897.34;5006336;28;20054;-83
2023/03/30 10:16:09;;;;;;;25.85;24.35;;;;;;;10.51;39.05;101901.53;5006924;28;20053;-82
2023/03/30 10:18:41;;;;;;;26.33;24.73;;;;;;;10.61;33.05;101895.97;5007322;28;20132;-82
2023/03/30 10:21:17;;;;;;;26.38;24.65;;;;;;;11.28;34.59;101887.25;5001482;28;20105;-83
2023/03/30 10:23:46;;;;;;;26.73;24.75;;;;;;;12.07;30.36;101884.00;5002712;28;20054;-83
2023/03/30 10:26:17;;;;;;;25.88;24.17;;;;;;;12.62;34.56;101882.56;5000518;28;20113;-83
2023/03/30 10:28:53;;;;;;;27.45;25.58;;;;;;;13.03;28.42;101876.53;5001699;28;20053;-83
2023/03/30 10:31:21;;;;;;;28.52;26.92;;;;;;;10.92;38.05;101882.63;4996786;28;20054;-83
2023/03/30 10:33:48;;;;;;;28.60;27.10;;;;;;;11.34;44.95;101880.38;4998746;28;20042;-83
2023/03/30 10:36:17;;;;;;;25.20;23.77;;;;;;;10.94;34.65;101877.94;5004513;28;20108;-83
2023/03/30 10:38:45;;;;;;;24.20;22.60;;;;;;;11.19;44.85;101875.03;5001144;28;20053;-83
2023/03/30 10:41:15;;;;;;;23.60;22.02;;;;;;;11.31;41.62;101864.78;4996485;28;20060;-83
2023/03/30 10:43:43;;;;;;;23.02;21.55;;;;;;;11.72;37.46;101861.66;5004984;28;20042;-83
2023/03/30 10:46:14;;;;;;;23.45;21.75;;;;;;;11.84;36.90;101866.31;4996244;28;20046;-83
2023/03/30 10:48:58;;;;;;;23.63;21.92;;;;;;;11.39;31.08;101852.22;5000835;28;20503;-83
2023/03/30 10:51:36;;;;;;;24.13;22.52;;;;;;;12.34;41.12;101851.34;5003523;28;20051;-83
2023/03/30 10:54:11;;;;;;;25.23;23.52;;;;;;;12.53;41.04;101846.41;5001960;28;20080;-82
2023/03/30 10:56:45;;;;;;;25.50;23.65;;;;;;;11.77;33.15;101837.94;4998798;28;20054;-83
2023/03/30 10:59:39;;;;;;;25.42;23.83;;;;;;;11.57;43.73;101827.91;4999916;28;20050;-83
2023/03/30 11:02:49;;;;;;;24.58;23.02;;;;;;;12.11;38.03;101826.72;4996140;28;20059;-83
2023/03/30 11:05:20;;;;;;;26.60;24.90;;;;;;;11.02;32.56;101825.72;4991268;28;20072;-82
2023/03/30 11:07:51;;;;;;;25.58;23.63;;;;;;;12.23;32.39;101817.22;5003223;28;20056;-83
2023/03/30 11:10:21;;;;;;;24.13;22.52;;;;;;;13.93;30.52;101810.72;4996381;28;20477;-83
2023/03/30 11:12:53;;;;;;;22.63;21.02;;;;;;;12.84;31.93;101806.84;5002374;28;20050;-83
2023/03/30 11:15:26;;;;;;;22.98;21.27;;;;;;;12.67;33.44;101794.84;4995778;28;20054;-83
2023/03/30 11:18:02;;;;;;;22.35;20.80;;;;;;;12.39;31.76;101786.81;5004468;28;20482;-83
2023/03/30 11:20:32;;;;;;;21.20;19.38;;;;;;;12.58;36.33;101778.16;4998374;28;20038;-83
2023/03/30 11:23:06;;;;;;;23.00;21.40;;;;;;;14.07;33.53;101777.66;5004106;28;20046;-83